createdAt,value
2022-12-16T00:01:39.763Z,101374.47
2022-12-16T00:04:07.522Z,101376.38
2022-12-16T00:06:36.187Z,101386.69
2022-12-16T00:10:00.985Z,101399.19
2022-12-16T00:12:47.118Z,101399.91
2022-12-16T00:15:15.040Z,101399.69
2022-12-16T00:17:42.649Z,101403.84
2022-12-16T00:20:10.963Z,101391.69
2022-12-16T00:22:38.517Z,101398.31
2022-12-16T00:25:08.700Z,101402.38
2022-12-16T00:27:36.498Z,101398.31
2022-12-16T00:30:04.750Z,101399.91
2022-12-16T00:32:36.435Z,101402.91
2022-12-16T00:35:04.151Z,101405.25
2022-12-16T00:37:32.902Z,101411.63
2022-12-16T00:40:01.160Z,101405.59
2022-12-16T00:42:29.138Z,101407.19
2022-12-16T00:44:56.807Z,101410.53
2022-12-16T00:47:24.411Z,101404.38
2022-12-16T00:49:52.047Z,101394.59
2022-12-16T00:52:19.551Z,101390.94
2022-12-16T00:54:47.633Z,101378.56
2022-12-16T00:57:15.674Z,101378.91
2022-12-16T00:59:43.396Z,101380.47
2022-12-16T01:02:11.360Z,101388.03
2022-12-16T01:04:39.585Z,101382.13
2022-12-16T01:07:07.435Z,101367.09
2022-12-16T01:09:38.935Z,101372.03
2022-12-16T01:12:09.299Z,101363.44
2022-12-16T01:14:37.052Z,101357.69
2022-12-16T01:17:06.519Z,101348.31
2022-12-16T01:19:34.266Z,101346.59
2022-12-16T01:22:01.835Z,101337.25
2022-12-16T01:24:29.852Z,101338.91
2022-12-16T01:26:57.496Z,101341.19
2022-12-16T01:29:25.761Z,101342.72
2022-12-16T01:31:53.382Z,101338.41
2022-12-16T01:34:24.108Z,101342.94
2022-12-16T01:36:51.662Z,101347.03
2022-12-16T01:39:19.950Z,101347.97
2022-12-16T01:41:47.586Z,101352.75
2022-12-16T01:44:17.306Z,101348.53
2022-12-16T01:46:56.508Z,101349.63
2022-12-16T01:49:26.168Z,101341.03
2022-12-16T01:51:55.429Z,101342.09
2022-12-16T01:54:25.894Z,101339.63
2022-12-16T01:57:01.147Z,101361.25
2022-12-16T01:59:29.292Z,101360.50
2022-12-16T02:01:57.577Z,101379.28
2022-12-16T02:04:25.320Z,101394.41
2022-12-16T02:06:52.935Z,101409.56
2022-12-16T02:09:22.723Z,101409.56
2022-12-16T02:11:59.688Z,101402.47
2022-12-16T02:14:58.110Z,101404.41
2022-12-16T02:17:35.248Z,101401.41
2022-12-16T02:20:14.759Z,101394.41
2022-12-16T02:22:51.365Z,101391.09
2022-12-16T02:25:51.604Z,101383.66
2022-12-16T02:28:29.246Z,101378.09
2022-12-16T02:31:20.193Z,101375.72
2022-12-16T02:34:08.723Z,101382.50
2022-12-16T02:36:57.440Z,101387.31
2022-12-16T02:39:36.068Z,101384.91
2022-12-16T02:42:30.313Z,101381.81
2022-12-16T02:45:01.920Z,101384.88
2022-12-16T02:47:30.219Z,101380.38
2022-12-16T02:49:57.913Z,101392.31
2022-12-16T02:52:27.411Z,101401.72
2022-12-16T02:54:58.040Z,101415.97
2022-12-16T02:57:31.640Z,101430.91
2022-12-16T03:00:09.425Z,101443.34
2022-12-16T03:03:02.739Z,101443.34
2022-12-16T03:05:42.811Z,101458.84
2022-12-16T03:08:16.236Z,101460.53
2022-12-16T03:10:53.235Z,101461.84
2022-12-16T03:13:23.670Z,101472.06
2022-12-16T03:15:52.807Z,101469.94
2022-12-16T03:18:20.713Z,101475.72
2022-12-16T03:20:52.707Z,101466.22
2022-12-16T03:23:39.922Z,101459.88
2022-12-16T03:26:10.992Z,101446.44
2022-12-16T03:28:45.986Z,101452.56
2022-12-16T03:31:26.742Z,101456.44
2022-12-16T03:34:04.087Z,101442.28
2022-12-16T03:36:32.020Z,101447.09
2022-12-16T03:38:59.992Z,101439.78
2022-12-16T03:41:27.620Z,101455.88
2022-12-16T03:43:55.972Z,101487.53
2022-12-16T03:46:23.846Z,101502.81
2022-12-16T03:48:52.126Z,101503.91
2022-12-16T03:51:21.495Z,101510.69
2022-12-16T03:53:49.146Z,101497.63
2022-12-16T03:56:16.721Z,101483.47
2022-12-16T03:58:47.173Z,101491.00
2022-12-16T04:01:15.201Z,101491.44
2022-12-16T04:03:42.943Z,101487.66
2022-12-16T04:06:11.890Z,101493.25
2022-12-16T04:08:39.837Z,101481.44
2022-12-16T04:11:27.472Z,101487.47
2022-12-16T04:14:13.445Z,101484.44
2022-12-16T04:16:59.455Z,101475.09
2022-12-16T04:19:50.744Z,101486.72
2022-12-16T04:22:44.042Z,101494.88
2022-12-16T04:25:19.678Z,101487.25
2022-12-16T04:27:47.292Z,101500.56
2022-12-16T04:30:22.135Z,101495.53
2022-12-16T04:33:19.749Z,101493.38
2022-12-16T04:36:05.767Z,101494.13
2022-12-16T04:38:51.939Z,101494.97
2022-12-16T04:41:38.304Z,101503.47
2022-12-16T04:44:24.514Z,101503.25
2022-12-16T04:47:12.962Z,101501.31
2022-12-16T04:49:59.175Z,101502.59
2022-12-16T04:52:45.193Z,101497.84
2022-12-16T04:55:31.284Z,101515.06
2022-12-16T04:58:18.755Z,101524.66
2022-12-16T05:01:05.941Z,101535.50
2022-12-16T05:03:53.240Z,101542.41
2022-12-16T05:06:39.422Z,101537.53
2022-12-16T05:09:25.887Z,101549.13
2022-12-16T05:12:12.209Z,101553.56
2022-12-16T05:14:58.411Z,101560.88
2022-12-16T05:17:44.495Z,101574.94
2022-12-16T05:20:30.505Z,101578.72
2022-12-16T05:23:16.504Z,101587.31
2022-12-16T05:26:03.321Z,101593.03
2022-12-16T05:28:50.395Z,101599.06
2022-12-16T05:31:36.421Z,101600.34
2022-12-16T05:34:22.521Z,101597.44
2022-12-16T05:37:08.545Z,101610.88
2022-12-16T05:39:54.770Z,101610.56
2022-12-16T05:42:40.977Z,101617.66
2022-12-16T05:45:27.136Z,101614.84
2022-12-16T05:48:13.536Z,101614.84
2022-12-16T05:50:59.635Z,101625.28
2022-12-16T05:53:45.637Z,101627.75
2022-12-16T05:56:31.860Z,101624.19
2022-12-16T05:59:18.390Z,101626.88
2022-12-16T06:02:04.593Z,101624.84
2022-12-16T06:04:50.976Z,101637.34
2022-12-16T06:07:37.185Z,101639.38
2022-12-16T06:10:23.926Z,101638.94
2022-12-16T06:13:10.310Z,101636.84
2022-12-16T06:15:56.501Z,101640.41
2022-12-16T06:18:43.023Z,101641.06
2022-12-16T06:21:29.265Z,101650.84
2022-12-16T06:24:15.634Z,101647.06
2022-12-16T06:27:01.569Z,101662.06
2022-12-16T06:29:47.835Z,101667.72
2022-12-16T06:32:33.887Z,101669.75
2022-12-16T06:35:20.592Z,101676.19
2022-12-16T06:38:07.195Z,101664.94
2022-12-16T06:40:53.532Z,101667.75
2022-12-16T06:43:42.418Z,101678.94
2022-12-16T06:46:28.795Z,101664.50
2022-12-16T06:49:22.761Z,101675.06
2022-12-16T06:52:08.920Z,101664.78
2022-12-16T06:55:02.770Z,101671.44
2022-12-16T06:57:49.265Z,101679.16
2022-12-16T07:00:35.478Z,101678.81
2022-12-16T07:03:23.416Z,101678.38
2022-12-16T07:06:30.148Z,101683.91
